createdAt,value
2023-03-29T00:02:19.588Z,3.77
2023-03-29T00:04:47.137Z,3.50
2023-03-29T00:07:14.268Z,3.17
2023-03-29T00:09:41.484Z,3.60
2023-03-29T00:12:08.480Z,2.93
2023-03-29T00:14:35.763Z,2.73
2023-03-29T00:17:02.714Z,3.37
2023-03-29T00:19:35.575Z,2.83
2023-03-29T00:22:05.942Z,3.97
2023-03-29T00:24:32.980Z,3.10
2023-03-29T00:26:59.929Z,3.70
2023-03-29T00:29:26.858Z,2.37
2023-03-29T00:31:55.923Z,3.30
2023-03-29T00:34:30.754Z,2.40
2023-03-29T00:36:58.803Z,3.20
2023-03-29T00:39:27.939Z,3.20
2023-03-29T00:41:55.278Z,2.60
2023-03-29T00:45:11.967Z,2.87
2023-03-29T00:47:45.030Z,3.37
2023-03-29T00:50:26.275Z,2.80
2023-03-29T00:53:08.351Z,3.60
2023-03-29T00:55:49.080Z,3.50
2023-03-29T00:58:23.324Z,3.00
2023-03-29T01:01:04.542Z,3.50
2023-03-29T01:03:41.613Z,4.03
2023-03-29T01:06:10.658Z,3.63
2023-03-29T01:08:45.383Z,4.50
2023-03-29T01:11:22.402Z,3.63
2023-03-29T01:14:00.177Z,2.87
2023-03-29T01:16:30.248Z,3.13
2023-03-29T01:19:02.346Z,3.43
2023-03-29T01:21:55.367Z,2.90
2023-03-29T01:24:38.016Z,2.93
2023-03-29T01:27:57.856Z,4.13
2023-03-29T01:30:34.226Z,3.13
2023-03-29T01:33:15.451Z,3.37
2023-03-29T01:35:49.311Z,2.97
2023-03-29T01:38:21.263Z,2.90
2023-03-29T01:40:48.202Z,2.80
2023-03-29T01:43:24.890Z,3.30
2023-03-29T01:46:03.031Z,2.87
2023-03-29T01:48:33.386Z,3.63
2023-03-29T01:51:08.984Z,3.23
2023-03-29T01:53:47.282Z,3.03
2023-03-29T01:56:20.140Z,4.20
2023-03-29T01:58:52.705Z,3.60
2023-03-29T02:01:26.216Z,2.50
2023-03-29T02:03:57.627Z,3.07
2023-03-29T02:06:27.743Z,2.80
2023-03-29T02:08:55.777Z,3.47
2023-03-29T02:11:24.672Z,3.33
2023-03-29T02:13:51.674Z,3.20
2023-03-29T02:16:19.664Z,3.90
2023-03-29T02:18:52.716Z,4.07
2023-03-29T02:21:40.546Z,3.37
2023-03-29T02:24:11.275Z,3.50
2023-03-29T02:26:38.236Z,3.07
2023-03-29T02:29:05.575Z,3.40
2023-03-29T02:31:40.852Z,3.40
2023-03-29T02:34:26.635Z,3.40
2023-03-29T02:37:00.112Z,3.40
2023-03-29T02:39:29.653Z,2.80
2023-03-29T02:41:57.030Z,3.40
2023-03-29T02:44:31.115Z,3.13
2023-03-29T02:47:31.948Z,3.20
2023-03-29T02:49:59.822Z,3.77
2023-03-29T02:52:34.246Z,3.30
2023-03-29T02:55:03.234Z,3.60
2023-03-29T02:57:32.288Z,4.00
2023-03-29T03:00:01.046Z,2.67
2023-03-29T03:02:29.740Z,2.87
2023-03-29T03:04:57.542Z,2.73
2023-03-29T03:07:24.947Z,2.80
2023-03-29T03:09:52.810Z,2.67
2023-03-29T03:12:20.298Z,3.40
2023-03-29T03:14:47.261Z,3.10
2023-03-29T03:17:14.169Z,2.97
2023-03-29T03:19:41.095Z,3.07
2023-03-29T03:22:09.889Z,2.93
2023-03-29T03:24:37.205Z,2.43
2023-03-29T03:27:04.854Z,2.97
2023-03-29T03:29:31.792Z,2.50
2023-03-29T03:31:58.818Z,2.47
2023-03-29T03:34:26.252Z,2.30
2023-03-29T03:36:55.383Z,2.27
2023-03-29T03:39:22.794Z,2.67
2023-03-29T03:41:49.672Z,3.47
2023-03-29T03:44:17.463Z,3.87
2023-03-29T03:46:44.377Z,3.30
2023-03-29T03:49:11.277Z,4.10
2023-03-29T03:51:38.117Z,2.77
2023-03-29T03:54:05.561Z,3.90
2023-03-29T03:56:34.182Z,2.93
2023-03-29T03:59:01.215Z,3.23
2023-03-29T04:01:28.190Z,3.60
2023-03-29T04:03:55.168Z,3.50
2023-03-29T04:06:22.599Z,2.80
2023-03-29T04:08:49.479Z,2.90
2023-03-29T04:11:16.361Z,2.23
2023-03-29T04:13:43.258Z,3.23
2023-03-29T04:16:10.320Z,3.00
2023-03-29T04:18:37.715Z,9.87
2023-03-29T04:21:05.336Z,45.93
2023-03-29T04:23:32.342Z,18.00
2023-03-29T04:25:59.391Z,6.60
2023-03-29T04:28:26.695Z,4.90
2023-03-29T04:30:54.001Z,4.20
2023-03-29T04:33:21.621Z,3.43
2023-03-29T04:35:48.637Z,2.73
2023-03-29T04:38:16.739Z,3.77
2023-03-29T04:40:44.224Z,6.77
2023-03-29T04:43:12.402Z,5.93
2023-03-29T04:45:39.518Z,4.13
2023-03-29T04:48:06.432Z,6.53
2023-03-29T04:50:34.736Z,6.10
2023-03-29T04:53:02.407Z,4.53
2023-03-29T04:55:29.795Z,3.93
2023-03-29T04:57:56.670Z,2.80
2023-03-29T05:00:27.345Z,2.93
2023-03-29T05:02:54.921Z,3.40
2023-03-29T05:05:22.567Z,3.37
2023-03-29T05:07:49.950Z,3.00
2023-03-29T05:10:18.446Z,3.13
2023-03-29T05:12:46.851Z,3.57
2023-03-29T05:15:14.780Z,3.80
2023-03-29T05:17:42.411Z,3.80
2023-03-29T05:20:10.472Z,4.43
2023-03-29T05:22:38.421Z,4.43
2023-03-29T05:25:06.852Z,3.20
2023-03-29T05:27:35.195Z,5.80
2023-03-29T05:30:02.293Z,4.87
2023-03-29T05:32:29.930Z,3.57
2023-03-29T05:34:56.922Z,5.03
2023-03-29T05:37:23.868Z,3.80
2023-03-29T05:39:50.808Z,4.33
2023-03-29T05:42:19.248Z,3.90
2023-03-29T05:44:46.205Z,4.40
2023-03-29T05:47:13.141Z,4.47
2023-03-29T05:49:40.120Z,5.47
2023-03-29T05:52:07.661Z,4.17
2023-03-29T05:54:34.557Z,4.87
2023-03-29T05:57:01.559Z,4.00
2023-03-29T05:59:29.628Z,4.10
2023-03-29T06:01:57.083Z,4.60
2023-03-29T06:04:24.797Z,4.07
2023-03-29T06:06:53.189Z,3.97
2023-03-29T06:09:20.248Z,4.20
2023-03-29T06:11:47.652Z,5.47
2023-03-29T06:14:14.821Z,45.27
2023-03-29T06:16:43.177Z,13.10
2023-03-29T06:19:10.390Z,4.97
2023-03-29T06:21:37.404Z,3.60
2023-03-29T06:24:04.837Z,4.07
2023-03-29T06:26:32.184Z,3.67
2023-03-29T06:28:59.087Z,3.43
2023-03-29T06:31:26.309Z,4.90
2023-03-29T06:33:53.280Z,3.20
2023-03-29T06:36:20.401Z,4.40
2023-03-29T06:38:47.437Z,3.30
2023-03-29T06:41:14.851Z,6.73
2023-03-29T06:43:42.086Z,17.07
2023-03-29T06:46:12.053Z,8.73
2023-03-29T06:48:41.160Z,4.53
2023-03-29T06:51:08.642Z,4.80
2023-03-29T06:53:36.695Z,5.47
2023-03-29T06:56:09.132Z,4.60
2023-03-29T06:58:36.814Z,3.63
2023-03-29T07:01:04.873Z,4.27
2023-03-29T07:03:35.008Z,3.77
2023-03-29T07:06:09.664Z,3.83
2023-03-29T07:08:43.468Z,3.90
2023-03-29T07:11:15.159Z,2.70
2023-03-29T07:13:43.105Z,3.43
2023-03-29T07:16:15.246Z,6.80
2023-03-29T07:18:44.356Z,5.93
2023-03-29T07:21:13.334Z,3.17
2023-03-29T07:23:41.013Z,3.43
2023-03-29T07:26:08.377Z,2.50
2023-03-29T07:28:37.564Z,3.90
2023-03-29T07:31:07.652Z,1.90
2023-03-29T07:33:35.160Z,4.10
2023-03-29T07:36:03.284Z,2.60
2023-03-29T07:38:31.465Z,2.60
2023-03-29T07:40:59.301Z,2.60
2023-03-29T07:43:26.232Z,2.60
2023-03-29T07:45:53.216Z,1.93
2023-03-29T07:48:20.232Z,2.23
2023-03-29T07:50:47.243Z,2.87
2023-03-29T07:53:14.272Z,4.53
2023-03-29T07:55:47.711Z,2.60
2023-03-29T07:58:15.997Z,1.90
2023-03-29T08:00:45.579Z,6.30
2023-03-29T08:03:13.294Z,8.13
2023-03-29T08:05:42.015Z,6.77
2023-03-29T08:08:09.845Z,3.10
2023-03-29T08:10:39.586Z,3.83
2023-03-29T08:13:09.435Z,7.20
2023-03-29T08:15:42.150Z,12.03
2023-03-29T08:18:09.322Z,7.87
2023-03-29T08:20:37.485Z,3.80
2023-03-29T08:23:04.802Z,2.67
2023-03-29T08:25:31.847Z,2.90
2023-03-29T08:27:59.001Z,2.67
2023-03-29T08:30:26.137Z,2.57
2023-03-29T08:32:55.418Z,2.67
2023-03-29T08:35:23.103Z,3.27
2023-03-29T08:37:50.178Z,3.33
2023-03-29T08:40:26.349Z,3.73
2023-03-29T08:43:10.698Z,4.13
2023-03-29T08:46:00.451Z,3.80
2023-03-29T08:48:40.133Z,3.50
2023-03-29T08:51:21.595Z,3.40
2023-03-29T08:53:57.892Z,20.57
2023-03-29T08:56:29.034Z,33.97
2023-03-29T08:58:58.093Z,5.17
2023-03-29T09:01:29.054Z,3.70
2023-03-29T09:04:09.082Z,3.83
2023-03-29T09:06:39.362Z,2.97
2023-03-29T09:09:15.779Z,3.20
2023-03-29T09:12:07.317Z,2.87
2023-03-29T09:15:19.577Z,2.30
2023-03-29T09:18:30.591Z,3.00
2023-03-29T09:21:31.203Z,2.30
2023-03-29T09:24:06.632Z,2.60
2023-03-29T09:26:49.404Z,3.20
2023-03-29T09:29:40.151Z,2.90
2023-03-29T09:32:20.196Z,4.20
2023-03-29T09:35:03.331Z,3.40
2023-03-29T09:37:36.999Z,2.80
2023-03-29T09:40:12.565Z,3.73
2023-03-29T09:42:40.649Z,2.70
2023-03-29T09:45:08.619Z,2.60
2023-03-29T09:47:44.810Z,2.60
2023-03-29T09:50:30.079Z,2.60
2023-03-29T09:52:59.726Z,2.83
2023-03-29T09:55:30.388Z,2.57
2023-03-29T09:58:14.082Z,2.80
2023-03-29T10:00:41.436Z,2.60
2023-03-29T10:03:10.632Z,2.40
2023-03-29T10:05:38.392Z,2.80
2023-03-29T10:08:22.739Z,2.30
2023-03-29T10:10:49.992Z,2.23
2023-03-29T10:13:28.372Z,2.10
2023-03-29T10:16:08.333Z,5.63
2023-03-29T10:18:42.913Z,3.80
2023-03-29T10:21:18.839Z,6.37
2023-03-29T10:23:46.094Z,2.60
2023-03-29T10:26:28.430Z,2.40
2023-03-29T10:28:57.302Z,2.30
2023-03-29T10:31:25.818Z,2.53
2023-03-29T10:33:58.135Z,1.93
2023-03-29T10:36:27.555Z,1.53
2023-03-29T10:38:59.294Z,2.07
2023-03-29T10:41:27.290Z,2.40
2023-03-29T10:43:54.888Z,2.30
2023-03-29T10:46:31.839Z,2.50
2023-03-29T10:49:05.794Z,1.97
2023-03-29T10:51:34.477Z,1.90
2023-03-29T10:54:02.871Z,2.10
2023-03-29T10:56:39.100Z,2.00
2023-03-29T10:59:24.254Z,1.80
2023-03-29T11:02:26.155Z,1.43
2023-03-29T11:05:35.077Z,2.07
2023-03-29T11:08:27.234Z,2.00
2023-03-29T11:11:21.813Z,2.47
2023-03-29T11:14:20.668Z,1.77
2023-03-29T11:17:02.476Z,1.63
2023-03-29T11:19:49.472Z,1.93
2023-03-29T11:22:24.670Z,2.47
2023-03-29T11:25:32.201Z,2.37
2023-03-29T11:28:10.867Z,2.00
2023-03-29T11:31:06.876Z,2.30
2023-03-29T11:34:19.799Z,2.73
2023-03-29T11:37:07.653Z,2.63
2023-03-29T11:39:51.630Z,1.70
2023-03-29T11:42:25.042Z,2.70
2023-03-29T11:44:55.156Z,2.77
2023-03-29T11:47:28.026Z,2.30
2023-03-29T11:50:22.288Z,2.43
2023-03-29T11:53:08.970Z,2.73
2023-03-29T11:55:39.481Z,2.60
2023-03-29T11:58:12.836Z,2.57
2023-03-29T12:00:48.553Z,2.30
2023-03-29T12:03:59.671Z,2.10
2023-03-29T12:06:52.562Z,2.23
2023-03-29T12:09:27.707Z,2.20
2023-03-29T12:12:27.144Z,2.60
2023-03-29T12:15:20.511Z,3.60
2023-03-29T12:18:06.097Z,3.10
2023-03-29T12:20:36.869Z,2.43
2023-03-29T12:23:07.790Z,3.07
2023-03-29T12:26:07.205Z,3.83
2023-03-29T12:29:14.435Z,12.23
2023-03-29T12:32:16.387Z,3.30
2023-03-29T12:35:14.434Z,2.60
2023-03-29T12:38:14.195Z,2.57
2023-03-29T12:40:48.326Z,3.33
2023-03-29T12:43:34.122Z,3.27
2023-03-29T12:46:11.357Z,3.13
2023-03-29T12:48:40.262Z,4.10
2023-03-29T12:51:21.677Z,3.70
2023-03-29T12:54:11.652Z,3.63
2023-03-29T12:56:58.168Z,3.00
2023-03-29T12:59:46.988Z,3.70
2023-03-29T13:02:13.983Z,3.30
2023-03-29T13:04:44.043Z,3.23
2023-03-29T13:07:33.060Z,4.20
2023-03-29T13:10:04.471Z,2.50
2023-03-29T13:12:39.618Z,3.53
2023-03-29T13:15:23.591Z,4.00
2023-03-29T13:18:33.883Z,3.90
2023-03-29T13:21:28.504Z,3.37
2023-03-29T13:24:03.726Z,4.40
2023-03-29T13:26:51.907Z,2.97
2023-03-29T13:29:49.932Z,3.60
2023-03-29T13:32:55.910Z,3.30
2023-03-29T13:35:34.423Z,3.13
2023-03-29T13:38:18.080Z,3.27
2023-03-29T13:41:12.184Z,10.33
2023-03-29T13:43:49.764Z,9.70
2023-03-29T13:46:37.666Z,3.87
2023-03-29T13:49:23.307Z,2.93
2023-03-29T13:51:53.333Z,2.40
2023-03-29T13:54:50.729Z,2.87
2023-03-29T13:57:30.219Z,2.50
2023-03-29T14:00:00.675Z,2.30
2023-03-29T14:02:38.548Z,2.90
2023-03-29T14:05:12.861Z,3.67
2023-03-29T14:07:46.294Z,2.87
2023-03-29T14:10:17.711Z,2.40
2023-03-29T14:12:46.073Z,2.17
2023-03-29T14:15:26.952Z,2.33
2023-03-29T14:17:58.947Z,2.90
2023-03-29T14:20:28.092Z,3.63
2023-03-29T14:22:55.046Z,3.00
2023-03-29T14:25:23.968Z,3.20
2023-03-29T14:27:50.923Z,2.50
2023-03-29T14:30:29.326Z,2.77
2023-03-29T14:32:56.717Z,2.70
2023-03-29T14:35:33.327Z,2.20
2023-03-29T14:38:01.865Z,2.50
2023-03-29T14:40:31.106Z,2.00
2023-03-29T14:43:01.573Z,2.67
2023-03-29T14:45:28.992Z,2.83
2023-03-29T14:47:56.363Z,2.50
2023-03-29T14:50:29.065Z,2.50
2023-03-29T14:52:58.549Z,3.00
2023-03-29T14:55:27.268Z,2.80
2023-03-29T14:57:56.623Z,3.00
2023-03-29T15:00:30.577Z,2.77
2023-03-29T15:03:02.788Z,3.60
2023-03-29T15:05:42.403Z,2.70
2023-03-29T15:08:17.836Z,5.20
2023-03-29T15:10:45.131Z,3.30
2023-03-29T15:13:20.051Z,2.47
2023-03-29T15:15:47.673Z,3.00
2023-03-29T15:18:17.126Z,2.67
2023-03-29T15:20:45.310Z,2.57
2023-03-29T15:23:15.353Z,2.50
2023-03-29T15:26:06.536Z,3.30
2023-03-29T15:28:36.026Z,3.43
2023-03-29T15:31:19.873Z,2.50
2023-03-29T15:33:47.599Z,2.33
2023-03-29T15:36:15.426Z,2.40
2023-03-29T15:38:45.305Z,2.60
2023-03-29T15:41:14.414Z,2.50
2023-03-29T15:43:41.945Z,3.57
2023-03-29T15:46:13.194Z,2.30
2023-03-29T15:48:40.770Z,2.70
2023-03-29T15:51:10.477Z,3.00
2023-03-29T15:53:37.458Z,3.03
2023-03-29T15:56:08.320Z,2.77
2023-03-29T15:58:37.084Z,3.13
2023-03-29T16:01:35.712Z,3.40
2023-03-29T16:04:17.008Z,4.30
2023-03-29T16:06:48.501Z,4.17
2023-03-29T16:09:16.796Z,3.03
2023-03-29T16:11:45.560Z,3.33
2023-03-29T16:14:24.162Z,3.77
2023-03-29T16:17:01.037Z,3.80
2023-03-29T16:19:30.068Z,3.90
2023-03-29T16:21:58.433Z,5.37
2023-03-29T16:24:28.602Z,4.00
2023-03-29T16:26:57.135Z,6.00
2023-03-29T16:29:25.237Z,6.10
2023-03-29T16:31:53.359Z,6.40
2023-03-29T16:34:22.714Z,6.70
2023-03-29T16:36:50.665Z,5.83
2023-03-29T16:39:19.037Z,6.20
2023-03-29T16:41:48.811Z,6.60
2023-03-29T16:44:23.979Z,5.57
2023-03-29T16:46:54.234Z,7.03
2023-03-29T16:49:21.749Z,6.40
2023-03-29T16:51:48.817Z,5.20
2023-03-29T16:54:19.761Z,6.40
2023-03-29T16:56:46.969Z,6.37
2023-03-29T16:59:14.141Z,7.30
2023-03-29T17:01:41.234Z,6.60
2023-03-29T17:04:08.867Z,7.23
2023-03-29T17:06:36.054Z,6.00
2023-03-29T17:09:03.603Z,13.20
2023-03-29T17:11:30.747Z,40.50
2023-03-29T17:13:57.983Z,17.23
2023-03-29T17:16:24.955Z,8.10
2023-03-29T17:18:51.938Z,8.47
2023-03-29T17:21:19.075Z,6.27
2023-03-29T17:23:45.964Z,9.73
2023-03-29T17:26:13.327Z,8.57
2023-03-29T17:28:40.289Z,10.90
2023-03-29T17:31:07.986Z,10.10
2023-03-29T17:33:36.160Z,10.17
2023-03-29T17:36:04.866Z,11.03
2023-03-29T17:38:33.829Z,10.47
2023-03-29T17:41:01.365Z,9.80
2023-03-29T17:43:28.435Z,10.43
2023-03-29T17:45:55.995Z,8.97
2023-03-29T17:48:24.521Z,9.67
2023-03-29T17:50:52.617Z,8.60
2023-03-29T17:53:19.818Z,13.37
2023-03-29T17:55:46.808Z,14.97
2023-03-29T17:58:13.775Z,14.10
2023-03-29T18:00:40.771Z,17.07
2023-03-29T18:03:08.183Z,16.50
2023-03-29T18:05:36.231Z,18.07
2023-03-29T18:08:03.709Z,18.07
2023-03-29T18:10:30.689Z,20.07
2023-03-29T18:12:57.695Z,21.63
2023-03-29T18:15:24.806Z,22.90
2023-03-29T18:17:52.050Z,21.90
2023-03-29T18:20:20.426Z,19.70
2023-03-29T18:22:47.393Z,20.60
2023-03-29T18:25:14.950Z,19.97
2023-03-29T18:27:41.888Z,20.03
2023-03-29T18:30:09.708Z,18.37
2023-03-29T18:32:36.975Z,16.10
2023-03-29T18:35:04.856Z,17.70
2023-03-29T18:37:31.992Z,18.93
2023-03-29T18:39:58.999Z,51.70
2023-03-29T18:42:26.126Z,25.20
2023-03-29T18:44:53.230Z,16.90
2023-03-29T18:47:20.156Z,16.87
2023-03-29T18:49:47.227Z,16.20
2023-03-29T18:52:14.157Z,13.53
2023-03-29T18:54:41.761Z,14.23
2023-03-29T18:57:08.809Z,13.00
2023-03-29T18:59:36.613Z,12.13
2023-03-29T19:02:04.353Z,11.53
2023-03-29T19:04:31.439Z,10.97
2023-03-29T19:07:01.273Z,12.40
2023-03-29T19:09:28.257Z,11.47
2023-03-29T19:11:55.374Z,13.00
2023-03-29T19:14:26.017Z,12.13
2023-03-29T19:16:53.122Z,12.47
2023-03-29T19:19:23.244Z,11.23
2023-03-29T19:21:50.378Z,14.90
2023-03-29T19:24:18.282Z,11.17
2023-03-29T19:26:47.848Z,11.50
2023-03-29T19:29:14.924Z,11.40
2023-03-29T19:31:41.939Z,13.13
2023-03-29T19:34:12.293Z,12.57
2023-03-29T19:36:39.642Z,12.87
2023-03-29T19:39:07.235Z,12.10
2023-03-29T19:41:34.190Z,12.80
2023-03-29T19:44:01.262Z,12.40
2023-03-29T19:46:29.061Z,10.30
2023-03-29T19:48:56.397Z,11.93
2023-03-29T19:51:25.257Z,11.67
2023-03-29T19:53:52.992Z,10.93
2023-03-29T19:56:25.502Z,9.60
2023-03-29T19:58:53.081Z,10.47
2023-03-29T20:01:21.106Z,9.60
2023-03-29T20:03:49.423Z,10.90
2023-03-29T20:06:18.800Z,65.70
2023-03-29T20:08:46.535Z,112.83
2023-03-29T20:11:14.734Z,37.93
2023-03-29T20:13:44.459Z,15.43
2023-03-29T20:16:15.970Z,11.00
2023-03-29T20:18:46.987Z,10.23
2023-03-29T20:21:16.669Z,11.03
2023-03-29T20:23:44.123Z,11.50
2023-03-29T20:26:11.841Z,10.03
2023-03-29T20:28:38.989Z,10.33
2023-03-29T20:31:10.637Z,10.73
2023-03-29T20:33:38.229Z,11.17
2023-03-29T20:36:06.608Z,9.73
2023-03-29T20:38:34.981Z,11.50
2023-03-29T20:41:04.173Z,10.83
2023-03-29T20:43:37.423Z,12.03
2023-03-29T20:46:05.760Z,10.97
2023-03-29T20:48:32.665Z,10.60
2023-03-29T20:51:03.206Z,10.47
2023-03-29T20:53:34.201Z,11.60
2023-03-29T20:56:01.191Z,15.10
2023-03-29T20:58:29.068Z,20.00
2023-03-29T21:00:58.904Z,11.00
2023-03-29T21:03:26.308Z,13.10
2023-03-29T21:05:58.252Z,12.97
2023-03-29T21:08:28.522Z,9.83
2023-03-29T21:10:56.209Z,10.17
2023-03-29T21:13:23.529Z,10.20
2023-03-29T21:15:51.341Z,9.40
2023-03-29T21:18:18.454Z,10.60
2023-03-29T21:20:45.668Z,9.30
2023-03-29T21:23:13.423Z,9.80
2023-03-29T21:25:40.697Z,10.63
2023-03-29T21:28:07.678Z,9.83
2023-03-29T21:30:34.630Z,9.93
2023-03-29T21:33:01.730Z,8.83
2023-03-29T21:35:28.767Z,10.70
2023-03-29T21:37:55.734Z,12.47
2023-03-29T21:40:22.851Z,10.40
2023-03-29T21:42:49.727Z,10.80
2023-03-29T21:45:16.707Z,11.40
2023-03-29T21:47:43.712Z,10.60
2023-03-29T21:50:11.606Z,10.50
2023-03-29T21:52:38.525Z,11.33
2023-03-29T21:55:06.765Z,10.80
2023-03-29T21:57:33.750Z,9.80
2023-03-29T22:00:00.784Z,10.87
2023-03-29T22:02:27.764Z,9.80
2023-03-29T22:04:54.658Z,9.67
2023-03-29T22:07:22.798Z,10.20
2023-03-29T22:09:49.757Z,8.97
2023-03-29T22:12:16.700Z,9.13
2023-03-29T22:14:43.589Z,7.50
2023-03-29T22:17:10.553Z,8.53
2023-03-29T22:19:39.028Z,8.83
2023-03-29T22:22:13.698Z,9.63
2023-03-29T22:24:41.933Z,8.20
2023-03-29T22:27:09.800Z,8.40
2023-03-29T22:29:36.913Z,8.60
2023-03-29T22:32:03.905Z,8.53
2023-03-29T22:34:31.440Z,8.50
2023-03-29T22:36:59.279Z,8.17
2023-03-29T22:39:26.903Z,8.10
2023-03-29T22:41:53.877Z,9.37
2023-03-29T22:44:20.943Z,8.80
2023-03-29T22:46:47.834Z,8.17
2023-03-29T22:49:14.851Z,8.73
2023-03-29T22:51:42.006Z,8.60
2023-03-29T22:54:08.933Z,8.77
2023-03-29T22:56:35.947Z,8.70
2023-03-29T22:59:02.952Z,9.13
2023-03-29T23:01:29.960Z,9.13
2023-03-29T23:03:56.928Z,8.57
2023-03-29T23:06:23.891Z,9.30
2023-03-29T23:08:50.926Z,8.47
2023-03-29T23:11:17.819Z,10.30
2023-03-29T23:13:48.690Z,8.90
2023-03-29T23:16:16.237Z,9.53
2023-03-29T23:18:43.276Z,10.00
2023-03-29T23:21:10.504Z,9.67
2023-03-29T23:23:38.298Z,8.93
2023-03-29T23:26:06.579Z,9.50
2023-03-29T23:28:34.510Z,11.40
2023-03-29T23:31:11.631Z,11.20
2023-03-29T23:33:41.700Z,11.50
2023-03-29T23:36:12.008Z,9.63
2023-03-29T23:38:40.202Z,11.70
2023-03-29T23:41:10.391Z,10.40
2023-03-29T23:43:40.983Z,9.00
2023-03-29T23:46:18.781Z,9.57
2023-03-29T23:48:48.956Z,10.70
2023-03-29T23:51:23.297Z,9.40
2023-03-29T23:53:50.622Z,9.37
2023-03-29T23:56:17.625Z,8.87
2023-03-29T23:58:44.831Z,8.43
